sensor_id;sensor_type;location;lat;lon;timestamp;P1;durP1;ratioP1;P2;durP2;ratioP2
11425;SDS011;5769;47.998;7.788;2024-02-15T00:01:06;235.57;;;63.05;;
11425;SDS011;5769;47.998;7.788;2024-02-15T00:03:32;237.05;;;62.22;;
11425;SDS011;5769;47.998;7.788;2024-02-15T00:05:59;235.95;;;63.50;;
11425;SDS011;5769;47.998;7.788;2024-02-15T00:08:29;236.60;;;62.70;;
11425;SDS011;5769;47.998;7.788;2024-02-15T00:11:03;235.23;;;61.22;;
11425;SDS011;5769;47.998;7.788;2024-02-15T00:13:36;244.57;;;69.78;;
11425;SDS011;5769;47.998;7.788;2024-02-15T00:16:03;237.65;;;63.88;;
11425;SDS011;5769;47.998;7.788;2024-02-15T00:18:33;236.98;;;63.03;;
11425;SDS011;5769;47.998;7.788;2024-02-15T00:21:07;239.20;;;60.30;;
11425;SDS011;5769;47.998;7.788;2024-02-15T00:23:37;238.23;;;62.45;;
11425;SDS011;5769;47.998;7.788;2024-02-15T00:26:05;237.35;;;61.10;;
11425;SDS011;5769;47.998;7.788;2024-02-15T00:28:31;235.73;;;61.00;;
11425;SDS011;5769;47.998;7.788;2024-02-15T00:31:01;237.82;;;61.30;;
11425;SDS011;5769;47.998;7.788;2024-02-15T00:33:28;236.75;;;62.25;;
11425;SDS011;5769;47.998;7.788;2024-02-15T00:35:55;240.40;;;63.22;;
11425;SDS011;5769;47.998;7.788;2024-02-15T00:38:24;238.60;;;62.85;;
11425;SDS011;5769;47.998;7.788;2024-02-15T00:40:51;237.43;;;62.80;;
11425;SDS011;5769;47.998;7.788;2024-02-15T00:43:18;236.48;;;61.78;;
11425;SDS011;5769;47.998;7.788;2024-02-15T00:45:45;238.02;;;62.10;;
11425;SDS011;5769;47.998;7.788;2024-02-15T00:48:18;235.13;;;60.90;;
11425;SDS011;5769;47.998;7.788;2024-02-15T00:50:45;240.40;;;64.72;;
11425;SDS011;5769;47.998;7.788;2024-02-15T00:53:13;236.73;;;59.92;;
11425;SDS011;5769;47.998;7.788;2024-02-15T00:55:45;235.55;;;59.33;;
11425;SDS011;5769;47.998;7.788;2024-02-15T00:58:12;237.18;;;60.95;;
11425;SDS011;5769;47.998;7.788;2024-02-15T01:00:41;238.48;;;61.80;;
11425;SDS011;5769;47.998;7.788;2024-02-15T01:03:08;238.55;;;62.13;;
11425;SDS011;5769;47.998;7.788;2024-02-15T01:05:36;241.23;;;61.53;;
11425;SDS011;5769;47.998;7.788;2024-02-15T01:08:03;238.52;;;61.17;;
11425;SDS011;5769;47.998;7.788;2024-02-15T01:10:32;237.38;;;61.65;;
11425;SDS011;5769;47.998;7.788;2024-02-15T01:13:01;233.02;;;59.42;;
11425;SDS011;5769;47.998;7.788;2024-02-15T01:15:29;233.07;;;61.00;;
11425;SDS011;5769;47.998;7.788;2024-02-15T01:17:56;234.68;;;62.05;;
11425;SDS011;5769;47.998;7.788;2024-02-15T01:20:23;233.07;;;62.83;;
11425;SDS011;5769;47.998;7.788;2024-02-15T01:22:54;234.02;;;61.40;;
11425;SDS011;5769;47.998;7.788;2024-02-15T01:25:20;234.13;;;61.25;;
11425;SDS011;5769;47.998;7.788;2024-02-15T01:27:47;234.63;;;61.97;;
11425;SDS011;5769;47.998;7.788;2024-02-15T01:30:17;236.25;;;61.63;;
11425;SDS011;5769;47.998;7.788;2024-02-15T01:32:47;234.38;;;61.92;;
11425;SDS011;5769;47.998;7.788;2024-02-15T01:35:14;232.18;;;60.30;;
11425;SDS011;5769;47.998;7.788;2024-02-15T01:37:41;233.85;;;60.60;;
11425;SDS011;5769;47.998;7.788;2024-02-15T01:40:13;233.35;;;61.38;;
11425;SDS011;5769;47.998;7.788;2024-02-15T01:42:45;233.07;;;60.10;;
11425;SDS011;5769;47.998;7.788;2024-02-15T01:45:14;233.88;;;60.42;;
11425;SDS011;5769;47.998;7.788;2024-02-15T01:47:44;234.00;;;60.30;;
11425;SDS011;5769;47.998;7.788;2024-02-15T01:50:11;235.65;;;60.55;;
11425;SDS011;5769;47.998;7.788;2024-02-15T01:52:44;234.23;;;62.63;;
11425;SDS011;5769;47.998;7.788;2024-02-15T01:55:20;235.82;;;59.58;;
11425;SDS011;5769;47.998;7.788;2024-02-15T01:57:49;233.50;;;60.72;;
11425;SDS011;5769;47.998;7.788;2024-02-15T02:00:17;232.80;;;60.75;;
11425;SDS011;5769;47.998;7.788;2024-02-15T02:02:45;235.88;;;60.55;;
11425;SDS011;5769;47.998;7.788;2024-02-15T02:05:18;233.65;;;58.70;;
11425;SDS011;5769;47.998;7.788;2024-02-15T02:07:45;233.63;;;60.88;;
11425;SDS011;5769;47.998;7.788;2024-02-15T02:10:12;235.07;;;61.88;;
11425;SDS011;5769;47.998;7.788;2024-02-15T02:12:42;234.05;;;59.00;;
11425;SDS011;5769;47.998;7.788;2024-02-15T02:15:08;233.35;;;60.35;;
11425;SDS011;5769;47.998;7.788;2024-02-15T02:17:36;233.02;;;59.80;;
11425;SDS011;5769;47.998;7.788;2024-02-15T02:20:09;233.07;;;59.60;;
11425;SDS011;5769;47.998;7.788;2024-02-15T02:22:39;231.50;;;59.47;;
11425;SDS011;5769;47.998;7.788;2024-02-15T02:25:12;234.02;;;59.85;;
11425;SDS011;5769;47.998;7.788;2024-02-15T02:27:39;235.98;;;61.00;;
11425;SDS011;5769;47.998;7.788;2024-02-15T02:30:15;235.40;;;61.22;;
11425;SDS011;5769;47.998;7.788;2024-02-15T02:32:44;233.98;;;59.10;;
11425;SDS011;5769;47.998;7.788;2024-02-15T02:35:11;235.18;;;61.28;;
11425;SDS011;5769;47.998;7.788;2024-02-15T02:37:41;233.52;;;59.22;;
11425;SDS011;5769;47.998;7.788;2024-02-15T02:40:12;233.65;;;57.78;;
11425;SDS011;5769;47.998;7.788;2024-02-15T02:42:49;234.52;;;60.25;;
11425;SDS011;5769;47.998;7.788;2024-02-15T02:45:17;234.93;;;60.63;;
11425;SDS011;5769;47.998;7.788;2024-02-15T02:47:47;233.30;;;60.25;;
11425;SDS011;5769;47.998;7.788;2024-02-15T02:50:14;234.23;;;60.67;;
11425;SDS011;5769;47.998;7.788;2024-02-15T02:52:41;231.77;;;59.45;;
11425;SDS011;5769;47.998;7.788;2024-02-15T02:55:07;233.07;;;60.05;;
11425;SDS011;5769;47.998;7.788;2024-02-15T02:57:35;233.50;;;60.17;;
11425;SDS011;5769;47.998;7.788;2024-02-15T03:00:03;231.05;;;58.40;;
11425;SDS011;5769;47.998;7.788;2024-02-15T03:02:33;229.70;;;59.20;;
11425;SDS011;5769;47.998;7.788;2024-02-15T03:05:01;228.55;;;59.22;;
11425;SDS011;5769;47.998;7.788;2024-02-15T03:07:29;231.70;;;61.22;;
11425;SDS011;5769;47.998;7.788;2024-02-15T03:09:58;229.50;;;59.13;;
11425;SDS011;5769;47.998;7.788;2024-02-15T03:12:25;232.43;;;61.22;;
11425;SDS011;5769;47.998;7.788;2024-02-15T03:14:56;231.02;;;60.47;;
11425;SDS011;5769;47.998;7.788;2024-02-15T03:17:26;229.82;;;59.15;;
11425;SDS011;5769;47.998;7.788;2024-02-15T03:19:52;234.40;;;59.75;;
11425;SDS011;5769;47.998;7.788;2024-02-15T03:22:22;231.55;;;58.42;;
11425;SDS011;5769;47.998;7.788;2024-02-15T03:24:59;231.00;;;59.88;;
11425;SDS011;5769;47.998;7.788;2024-02-15T03:27:26;232.25;;;59.65;;
11425;SDS011;5769;47.998;7.788;2024-02-15T03:29:53;231.95;;;59.10;;
11425;SDS011;5769;47.998;7.788;2024-02-15T03:32:27;231.23;;;58.75;;
11425;SDS011;5769;47.998;7.788;2024-02-15T03:34:56;234.18;;;61.00;;
11425;SDS011;5769;47.998;7.788;2024-02-15T03:37:25;233.13;;;59.95;;
11425;SDS011;5769;47.998;7.788;2024-02-15T03:39:55;234.57;;;61.15;;
11425;SDS011;5769;47.998;7.788;2024-02-15T03:42:22;231.60;;;60.15;;
11425;SDS011;5769;47.998;7.788;2024-02-15T03:44:49;232.13;;;61.00;;
11425;SDS011;5769;47.998;7.788;2024-02-15T03:47:15;232.10;;;60.95;;
11425;SDS011;5769;47.998;7.788;2024-02-15T03:49:44;229.77;;;58.20;;
11425;SDS011;5769;47.998;7.788;2024-02-15T03:52:13;231.63;;;59.10;;
11425;SDS011;5769;47.998;7.788;2024-02-15T03:54:40;230.38;;;58.97;;
11425;SDS011;5769;47.998;7.788;2024-02-15T03:57:08;230.63;;;58.17;;
11425;SDS011;5769;47.998;7.788;2024-02-15T03:59:36;232.38;;;58.75;;
11425;SDS011;5769;47.998;7.788;2024-02-15T04:02:05;232.18;;;59.28;;
11425;SDS011;5769;47.998;7.788;2024-02-15T04:04:37;230.27;;;58.35;;
11425;SDS011;5769;47.998;7.788;2024-02-15T04:07:08;232.38;;;58.95;;
11425;SDS011;5769;47.998;7.788;2024-02-15T04:09:36;230.32;;;58.58;;
11425;SDS011;5769;47.998;7.788;2024-02-15T04:12:03;232.25;;;59.40;;
11425;SDS011;5769;47.998;7.788;2024-02-15T04:14:32;233.02;;;59.80;;
11425;SDS011;5769;47.998;7.788;2024-02-15T04:16:59;232.40;;;59.83;;
11425;SDS011;5769;47.998;7.788;2024-02-15T04:19:26;232.55;;;59.33;;
11425;SDS011;5769;47.998;7.788;2024-02-15T04:21:53;231.88;;;59.00;;
11425;SDS011;5769;47.998;7.788;2024-02-15T04:24:22;232.82;;;59.65;;
11425;SDS011;5769;47.998;7.788;2024-02-15T04:26:50;232.90;;;59.35;;
11425;SDS011;5769;47.998;7.788;2024-02-15T04:29:17;234.68;;;59.58;;
11425;SDS011;5769;47.998;7.788;2024-02-15T04:31:45;231.02;;;57.80;;
11425;SDS011;5769;47.998;7.788;2024-02-15T04:34:14;232.15;;;58.35;;
11425;SDS011;5769;47.998;7.788;2024-02-15T04:36:41;230.65;;;57.78;;
11425;SDS011;5769;47.998;7.788;2024-02-15T04:39:10;233.70;;;58.38;;
11425;SDS011;5769;47.998;7.788;2024-02-15T04:41:45;233.25;;;58.25;;
11425;SDS011;5769;47.998;7.788;2024-02-15T04:44:12;233.27;;;59.17;;
11425;SDS011;5769;47.998;7.788;2024-02-15T04:46:41;231.43;;;57.85;;
11425;SDS011;5769;47.998;7.788;2024-02-15T04:49:10;231.65;;;57.63;;
11425;SDS011;5769;47.998;7.788;2024-02-15T04:51:38;232.23;;;58.92;;
11425;SDS011;5769;47.998;7.788;2024-02-15T04:54:06;232.00;;;58.95;;
11425;SDS011;5769;47.998;7.788;2024-02-15T04:56:35;231.13;;;58.53;;
11425;SDS011;5769;47.998;7.788;2024-02-15T04:59:03;231.10;;;58.83;;
11425;SDS011;5769;47.998;7.788;2024-02-15T05:01:34;230.48;;;56.50;;
11425;SDS011;5769;47.998;7.788;2024-02-15T05:04:01;230.90;;;58.75;;
11425;SDS011;5769;47.998;7.788;2024-02-15T05:06:30;229.55;;;58.60;;
11425;SDS011;5769;47.998;7.788;2024-02-15T05:09:01;229.15;;;57.08;;
11425;SDS011;5769;47.998;7.788;2024-02-15T05:11:32;227.45;;;57.42;;
11425;SDS011;5769;47.998;7.788;2024-02-15T05:14:00;229.32;;;57.67;;
11425;SDS011;5769;47.998;7.788;2024-02-15T05:16:29;229.48;;;56.45;;
11425;SDS011;5769;47.998;7.788;2024-02-15T05:18:56;231.32;;;59.10;;
11425;SDS011;5769;47.998;7.788;2024-02-15T05:21:23;231.23;;;57.83;;
11425;SDS011;5769;47.998;7.788;2024-02-15T05:23:50;229.63;;;56.83;;
11425;SDS011;5769;47.998;7.788;2024-02-15T05:26:17;230.98;;;56.78;;
11425;SDS011;5769;47.998;7.788;2024-02-15T05:28:48;230.18;;;56.28;;
11425;SDS011;5769;47.998;7.788;2024-02-15T05:31:16;233.48;;;60.63;;
11425;SDS011;5769;47.998;7.788;2024-02-15T05:33:46;232.65;;;59.85;;
11425;SDS011;5769;47.998;7.788;2024-02-15T05:36:16;232.50;;;60.28;;
11425;SDS011;5769;47.998;7.788;2024-02-15T05:38:46;231.15;;;57.50;;
11425;SDS011;5769;47.998;7.788;2024-02-15T05:41:13;232.25;;;59.42;;
11425;SDS011;5769;47.998;7.788;2024-02-15T05:43:43;230.55;;;58.13;;
11425;SDS011;5769;47.998;7.788;2024-02-15T05:46:10;235.45;;;59.80;;
11425;SDS011;5769;47.998;7.788;2024-02-15T05:48:37;232.30;;;59.50;;
11425;SDS011;5769;47.998;7.788;2024-02-15T05:51:09;220.23;;;60.45;;
11425;SDS011;5769;47.998;7.788;2024-02-15T05:53:37;218.90;;;59.55;;
11425;SDS011;5769;47.998;7.788;2024-02-15T05:56:06;219.40;;;61.15;;
11425;SDS011;5769;47.998;7.788;2024-02-15T05:58:35;223.00;;;62.88;;
11425;SDS011;5769;47.998;7.788;2024-02-15T06:01:03;220.13;;;61.72;;
11425;SDS011;5769;47.998;7.788;2024-02-15T06:03:31;221.23;;;60.60;;
11425;SDS011;5769;47.998;7.788;2024-02-15T06:06:03;219.10;;;59.70;;
11425;SDS011;5769;47.998;7.788;2024-02-15T06:08:33;217.52;;;59.85;;
11425;SDS011;5769;47.998;7.788;2024-02-15T06:11:00;219.65;;;59.38;;
11425;SDS011;5769;47.998;7.788;2024-02-15T06:13:27;220.02;;;61.72;;
11425;SDS011;5769;47.998;7.788;2024-02-15T06:15:54;219.02;;;60.22;;
11425;SDS011;5769;47.998;7.788;2024-02-15T06:18:21;219.50;;;62.53;;
11425;SDS011;5769;47.998;7.788;2024-02-15T06:20:51;220.77;;;61.95;;
11425;SDS011;5769;47.998;7.788;2024-02-15T06:23:19;219.80;;;60.60;;
11425;SDS011;5769;47.998;7.788;2024-02-15T06:25:47;220.73;;;61.40;;
11425;SDS011;5769;47.998;7.788;2024-02-15T06:28:14;219.20;;;61.58;;
11425;SDS011;5769;47.998;7.788;2024-02-15T06:31:05;219.73;;;61.97;;
11425;SDS011;5769;47.998;7.788;2024-02-15T06:33:50;217.63;;;57.17;;
11425;SDS011;5769;47.998;7.788;2024-02-15T06:36:38;216.15;;;56.78;;
11425;SDS011;5769;47.998;7.788;2024-02-15T06:39:23;216.85;;;58.47;;
11425;SDS011;5769;47.998;7.788;2024-02-15T06:42:14;216.98;;;57.90;;
11425;SDS011;5769;47.998;7.788;2024-02-15T06:44:43;217.75;;;57.88;;
11425;SDS011;5769;47.998;7.788;2024-02-15T06:47:11;212.13;;;59.65;;
11425;SDS011;5769;47.998;7.788;2024-02-15T06:49:40;212.80;;;59.35;;
11425;SDS011;5769;47.998;7.788;2024-02-15T06:52:09;212.57;;;60.83;;
11425;SDS011;5769;47.998;7.788;2024-02-15T06:54:40;214.43;;;59.28;;
11425;SDS011;5769;47.998;7.788;2024-02-15T06:57:08;214.80;;;58.85;;
11425;SDS011;5769;47.998;7.788;2024-02-15T06:59:45;215.10;;;57.75;;
11425;SDS011;5769;47.998;7.788;2024-02-15T07:02:20;215.27;;;58.15;;
11425;SDS011;5769;47.998;7.788;2024-02-15T07:04:50;216.10;;;58.10;;
11425;SDS011;5769;47.998;7.788;2024-02-15T07:07:17;216.43;;;59.03;;
11425;SDS011;5769;47.998;7.788;2024-02-15T07:09:43;215.68;;;58.28;;
11425;SDS011;5769;47.998;7.788;2024-02-15T07:12:13;217.43;;;60.47;;
11425;SDS011;5769;47.998;7.788;2024-02-15T07:14:44;218.48;;;60.17;;
11425;SDS011;5769;47.998;7.788;2024-02-15T07:17:17;217.48;;;59.67;;
11425;SDS011;5769;47.998;7.788;2024-02-15T07:19:44;218.63;;;58.85;;
11425;SDS011;5769;47.998;7.788;2024-02-15T07:22:14;218.95;;;59.58;;
11425;SDS011;5769;47.998;7.788;2024-02-15T07:24:41;219.77;;;60.92;;
11425;SDS011;5769;47.998;7.788;2024-02-15T07:27:12;217.55;;;58.08;;
11425;SDS011;5769;47.998;7.788;2024-02-15T07:29:39;215.98;;;59.45;;
11425;SDS011;5769;47.998;7.788;2024-02-15T07:32:07;215.45;;;59.60;;
11425;SDS011;5769;47.998;7.788;2024-02-15T07:34:34;215.07;;;58.75;;
11425;SDS011;5769;47.998;7.788;2024-02-15T07:37:03;215.02;;;58.85;;
11425;SDS011;5769;47.998;7.788;2024-02-15T07:39:34;215.07;;;58.13;;
11425;SDS011;5769;47.998;7.788;2024-02-15T07:42:08;215.50;;;58.30;;
11425;SDS011;5769;47.998;7.788;2024-02-15T07:44:38;217.18;;;57.65;;
11425;SDS011;5769;47.998;7.788;2024-02-15T07:47:22;216.50;;;59.95;;
11425;SDS011;5769;47.998;7.788;2024-02-15T07:49:49;216.25;;;59.47;;
11425;SDS011;5769;47.998;7.788;2024-02-15T07:52:16;219.02;;;60.17;;
11425;SDS011;5769;47.998;7.788;2024-02-15T07:54:46;219.45;;;60.42;;
11425;SDS011;5769;47.998;7.788;2024-02-15T07:57:14;218.18;;;60.55;;
11425;SDS011;5769;47.998;7.788;2024-02-15T07:59:52;218.30;;;60.70;;
11425;SDS011;5769;47.998;7.788;2024-02-15T08:02:20;218.60;;;59.75;;
11425;SDS011;5769;47.998;7.788;2024-02-15T08:04:47;218.98;;;60.55;;
11425;SDS011;5769;47.998;7.788;2024-02-15T08:07:14;231.07;;;75.03;;
11425;SDS011;5769;47.998;7.788;2024-02-15T08:09:44;218.07;;;58.00;;
11425;SDS011;5769;47.998;7.788;2024-02-15T08:12:11;219.93;;;59.70;;
11425;SDS011;5769;47.998;7.788;2024-02-15T08:14:38;220.48;;;58.95;;
11425;SDS011;5769;47.998;7.788;2024-02-15T08:17:08;218.95;;;58.65;;
11425;SDS011;5769;47.998;7.788;2024-02-15T08:19:43;220.82;;;59.78;;
11425;SDS011;5769;47.998;7.788;2024-02-15T08:22:12;221.13;;;59.22;;
11425;SDS011;5769;47.998;7.788;2024-02-15T08:24:39;220.85;;;58.88;;
11425;SDS011;5769;47.998;7.788;2024-02-15T08:27:06;217.45;;;58.97;;
11425;SDS011;5769;47.998;7.788;2024-02-15T08:29:33;216.52;;;59.00;;
11425;SDS011;5769;47.998;7.788;2024-02-15T08:32:01;221.50;;;60.50;;
11425;SDS011;5769;47.998;7.788;2024-02-15T08:34:29;219.55;;;61.45;;
11425;SDS011;5769;47.998;7.788;2024-02-15T08:36:59;218.65;;;59.60;;
11425;SDS011;5769;47.998;7.788;2024-02-15T08:39:28;221.65;;;61.53;;
11425;SDS011;5769;47.998;7.788;2024-02-15T08:41:56;219.70;;;59.20;;
11425;SDS011;5769;47.998;7.788;2024-02-15T08:44:24;219.18;;;59.60;;
11425;SDS011;5769;47.998;7.788;2024-02-15T08:46:53;219.40;;;61.47;;
11425;SDS011;5769;47.998;7.788;2024-02-15T08:49:20;219.68;;;60.08;;
11425;SDS011;5769;47.998;7.788;2024-02-15T08:51:48;221.63;;;60.70;;
11425;SDS011;5769;47.998;7.788;2024-02-15T08:54:21;218.52;;;60.25;;
11425;SDS011;5769;47.998;7.788;2024-02-15T08:56:54;219.13;;;61.15;;
11425;SDS011;5769;47.998;7.788;2024-02-15T08:59:28;220.35;;;58.88;;
11425;SDS011;5769;47.998;7.788;2024-02-15T09:01:55;217.43;;;58.70;;
11425;SDS011;5769;47.998;7.788;2024-02-15T09:04:30;217.55;;;59.22;;
11425;SDS011;5769;47.998;7.788;2024-02-15T09:06:57;218.27;;;59.88;;
11425;SDS011;5769;47.998;7.788;2024-02-15T09:09:25;219.25;;;61.72;;
11425;SDS011;5769;47.998;7.788;2024-02-15T09:11:52;219.48;;;61.78;;
11425;SDS011;5769;47.998;7.788;2024-02-15T09:14:18;219.30;;;61.25;;
11425;SDS011;5769;47.998;7.788;2024-02-15T09:16:45;213.60;;;59.17;;
11425;SDS011;5769;47.998;7.788;2024-02-15T09:19:12;208.60;;;59.67;;
11425;SDS011;5769;47.998;7.788;2024-02-15T09:21:43;209.82;;;61.75;;
11425;SDS011;5769;47.998;7.788;2024-02-15T09:24:13;207.88;;;61.30;;
11425;SDS011;5769;47.998;7.788;2024-02-15T09:26:43;207.00;;;61.20;;
11425;SDS011;5769;47.998;7.788;2024-02-15T09:29:14;208.35;;;61.92;;
11425;SDS011;5769;47.998;7.788;2024-02-15T09:31:47;206.70;;;60.55;;
11425;SDS011;5769;47.998;7.788;2024-02-15T09:34:14;208.75;;;63.83;;
11425;SDS011;5769;47.998;7.788;2024-02-15T09:36:44;207.50;;;63.20;;
11425;SDS011;5769;47.998;7.788;2024-02-15T09:39:22;206.65;;;62.00;;
11425;SDS011;5769;47.998;7.788;2024-02-15T09:41:54;205.90;;;61.10;;
11425;SDS011;5769;47.998;7.788;2024-02-15T09:44:27;216.57;;;80.93;;
11425;SDS011;5769;47.998;7.788;2024-02-15T09:47:06;201.88;;;60.13;;
11425;SDS011;5769;47.998;7.788;2024-02-15T09:49:39;201.60;;;62.65;;
11425;SDS011;5769;47.998;7.788;2024-02-15T09:52:09;199.15;;;61.47;;
11425;SDS011;5769;47.998;7.788;2024-02-15T09:54:43;200.98;;;64.20;;
11425;SDS011;5769;47.998;7.788;2024-02-15T09:57:13;198.52;;;58.80;;
11425;SDS011;5769;47.998;7.788;2024-02-15T09:59:40;201.35;;;61.90;;
11425;SDS011;5769;47.998;7.788;2024-02-15T10:02:09;205.90;;;62.15;;
11425;SDS011;5769;47.998;7.788;2024-02-15T10:04:39;204.95;;;63.95;;
11425;SDS011;5769;47.998;7.788;2024-02-15T10:07:13;202.68;;;62.90;;
11425;SDS011;5769;47.998;7.788;2024-02-15T10:09:43;204.23;;;62.10;;
11425;SDS011;5769;47.998;7.788;2024-02-15T10:12:16;205.88;;;63.38;;
11425;SDS011;5769;47.998;7.788;2024-02-15T10:14:47;204.43;;;61.47;;
11425;SDS011;5769;47.998;7.788;2024-02-15T10:17:16;205.32;;;61.38;;
11425;SDS011;5769;47.998;7.788;2024-02-15T10:19:45;206.55;;;61.78;;
11425;SDS011;5769;47.998;7.788;2024-02-15T10:22:29;213.07;;;70.75;;
11425;SDS011;5769;47.998;7.788;2024-02-15T10:25:11;205.75;;;61.15;;
11425;SDS011;5769;47.998;7.788;2024-02-15T10:27:45;206.73;;;61.13;;
11425;SDS011;5769;47.998;7.788;2024-02-15T10:30:18;211.45;;;69.47;;
11425;SDS011;5769;47.998;7.788;2024-02-15T10:32:52;208.15;;;60.80;;
11425;SDS011;5769;47.998;7.788;2024-02-15T10:35:22;207.68;;;62.97;;
11425;SDS011;5769;47.998;7.788;2024-02-15T10:37:52;206.93;;;62.03;;
11425;SDS011;5769;47.998;7.788;2024-02-15T10:40:32;209.05;;;63.05;;
11425;SDS011;5769;47.998;7.788;2024-02-15T10:43:01;209.57;;;60.95;;
11425;SDS011;5769;47.998;7.788;2024-02-15T10:45:48;210.00;;;61.42;;
11425;SDS011;5769;47.998;7.788;2024-02-15T10:48:20;209.95;;;61.17;;
11425;SDS011;5769;47.998;7.788;2024-02-15T10:50:50;216.02;;;69.95;;
11425;SDS011;5769;47.998;7.788;2024-02-15T10:53:27;211.32;;;62.40;;
11425;SDS011;5769;47.998;7.788;2024-02-15T10:55:57;210.60;;;61.50;;
11425;SDS011;5769;47.998;7.788;2024-02-15T10:58:33;215.80;;;68.28;;
11425;SDS011;5769;47.998;7.788;2024-02-15T11:01:06;212.73;;;61.00;;
11425;SDS011;5769;47.998;7.788;2024-02-15T11:03:42;211.70;;;61.35;;
11425;SDS011;5769;47.998;7.788;2024-02-15T11:06:16;210.77;;;59.95;;
11425;SDS011;5769;47.998;7.788;2024-02-15T11:08:51;209.65;;;60.92;;
11425;SDS011;5769;47.998;7.788;2024-02-15T11:11:22;213.68;;;62.83;;
11425;SDS011;5769;47.998;7.788;2024-02-15T11:13:50;212.30;;;61.85;;
11425;SDS011;5769;47.998;7.788;2024-02-15T11:16:52;211.40;;;59.30;;
11425;SDS011;5769;47.998;7.788;2024-02-15T11:22:11;209.82;;;58.15;;
11425;SDS011;5769;47.998;7.788;2024-02-15T11:24:47;211.02;;;60.08;;
11425;SDS011;5769;47.998;7.788;2024-02-15T11:27:24;213.45;;;61.25;;
11425;SDS011;5769;47.998;7.788;2024-02-15T11:29:55;212.00;;;60.85;;
11425;SDS011;5769;47.998;7.788;2024-02-15T11:32:39;216.52;;;66.95;;
11425;SDS011;5769;47.998;7.788;2024-02-15T11:35:10;209.23;;;59.80;;
11425;SDS011;5769;47.998;7.788;2024-02-15T11:37:50;208.23;;;59.63;;
11425;SDS011;5769;47.998;7.788;2024-02-15T11:40:20;210.40;;;67.32;;
11425;SDS011;5769;47.998;7.788;2024-02-15T11:42:55;206.15;;;60.22;;
11425;SDS011;5769;47.998;7.788;2024-02-15T11:45:30;206.18;;;60.38;;
11425;SDS011;5769;47.998;7.788;2024-02-15T11:48:04;204.63;;;59.58;;
11425;SDS011;5769;47.998;7.788;2024-02-15T11:50:37;204.52;;;59.90;;
11425;SDS011;5769;47.998;7.788;2024-02-15T11:53:06;204.23;;;60.17;;
11425;SDS011;5769;47.998;7.788;2024-02-15T11:55:36;205.18;;;58.92;;
11425;SDS011;5769;47.998;7.788;2024-02-15T11:58:04;203.93;;;59.75;;
11425;SDS011;5769;47.998;7.788;2024-02-15T12:00:45;212.63;;;67.97;;
11425;SDS011;5769;47.998;7.788;2024-02-15T12:03:29;204.30;;;57.50;;
11425;SDS011;5769;47.998;7.788;2024-02-15T12:06:16;205.10;;;58.40;;
11425;SDS011;5769;47.998;7.788;2024-02-15T12:09:04;206.55;;;57.92;;
11425;SDS011;5769;47.998;7.788;2024-02-15T12:11:57;206.45;;;56.72;;
11425;SDS011;5769;47.998;7.788;2024-02-15T12:14:41;213.13;;;65.68;;
11425;SDS011;5769;47.998;7.788;2024-02-15T12:17:33;204.88;;;57.63;;
11425;SDS011;5769;47.998;7.788;2024-02-15T12:20:37;203.88;;;56.97;;
11425;SDS011;5769;47.998;7.788;2024-02-15T12:23:06;203.85;;;57.42;;
11425;SDS011;5769;47.998;7.788;2024-02-15T12:25:32;205.32;;;59.03;;
11425;SDS011;5769;47.998;7.788;2024-02-15T12:28:03;207.88;;;59.75;;
11425;SDS011;5769;47.998;7.788;2024-02-15T12:30:35;204.13;;;58.15;;
11425;SDS011;5769;47.998;7.788;2024-02-15T12:33:10;205.98;;;59.63;;
11425;SDS011;5769;47.998;7.788;2024-02-15T12:35:48;214.63;;;65.80;;
11425;SDS011;5769;47.998;7.788;2024-02-15T12:38:16;210.13;;;59.15;;
11425;SDS011;5769;47.998;7.788;2024-02-15T12:40:43;208.35;;;59.65;;
11425;SDS011;5769;47.998;7.788;2024-02-15T12:43:13;214.23;;;66.30;;
11425;SDS011;5769;47.998;7.788;2024-02-15T12:45:41;208.23;;;59.40;;
11425;SDS011;5769;47.998;7.788;2024-02-15T12:48:12;206.75;;;57.85;;
11425;SDS011;5769;47.998;7.788;2024-02-15T12:50:40;210.13;;;59.45;;
11425;SDS011;5769;47.998;7.788;2024-02-15T12:53:09;207.35;;;58.75;;
11425;SDS011;5769;47.998;7.788;2024-02-15T12:55:52;206.18;;;59.38;;
11425;SDS011;5769;47.998;7.788;2024-02-15T12:58:24;206.02;;;59.08;;
11425;SDS011;5769;47.998;7.788;2024-02-15T13:00:54;204.95;;;58.38;;
11425;SDS011;5769;47.998;7.788;2024-02-15T13:03:26;206.35;;;63.67;;
11425;SDS011;5769;47.998;7.788;2024-02-15T13:06:01;204.18;;;58.72;;
11425;SDS011;5769;47.998;7.788;2024-02-15T13:08:28;204.23;;;57.80;;
11425;SDS011;5769;47.998;7.788;2024-02-15T13:11:01;211.10;;;65.53;;
11425;SDS011;5769;47.998;7.788;2024-02-15T13:13:28;206.35;;;58.97;;
11425;SDS011;5769;47.998;7.788;2024-02-15T13:15:59;209.43;;;58.83;;
11425;SDS011;5769;47.998;7.788;2024-02-15T13:18:32;210.55;;;63.13;;
11425;SDS011;5769;47.998;7.788;2024-02-15T13:21:02;207.07;;;57.95;;
11425;SDS011;5769;47.998;7.788;2024-02-15T13:23:30;210.32;;;59.63;;
11425;SDS011;5769;47.998;7.788;2024-02-15T13:26:00;208.07;;;59.15;;
11425;SDS011;5769;47.998;7.788;2024-02-15T13:28:35;209.27;;;58.78;;
11425;SDS011;5769;47.998;7.788;2024-02-15T13:31:02;220.45;;;74.50;;
11425;SDS011;5769;47.998;7.788;2024-02-15T13:33:30;207.52;;;57.20;;
11425;SDS011;5769;47.998;7.788;2024-02-15T13:36:01;207.65;;;58.08;;
11425;SDS011;5769;47.998;7.788;2024-02-15T13:38:32;213.60;;;63.63;;
11425;SDS011;5769;47.998;7.788;2024-02-15T13:40:58;208.68;;;57.20;;
11425;SDS011;5769;47.998;7.788;2024-02-15T13:43:29;209.00;;;56.67;;
11425;SDS011;5769;47.998;7.788;2024-02-15T13:45:59;209.52;;;59.17;;
11425;SDS011;5769;47.998;7.788;2024-02-15T13:48:29;210.20;;;58.42;;
11425;SDS011;5769;47.998;7.788;2024-02-15T13:50:56;210.20;;;57.97;;
11425;SDS011;5769;47.998;7.788;2024-02-15T13:53:26;210.93;;;59.28;;
11425;SDS011;5769;47.998;7.788;2024-02-15T13:55:53;208.55;;;58.25;;
11425;SDS011;5769;47.998;7.788;2024-02-15T13:58:20;209.77;;;60.20;;
11425;SDS011;5769;47.998;7.788;2024-02-15T14:00:51;207.20;;;57.95;;
11425;SDS011;5769;47.998;7.788;2024-02-15T14:03:18;209.38;;;59.47;;
11425;SDS011;5769;47.998;7.788;2024-02-15T14:05:47;214.13;;;63.85;;
11425;SDS011;5769;47.998;7.788;2024-02-15T14:08:14;210.43;;;59.30;;
11425;SDS011;5769;47.998;7.788;2024-02-15T14:10:46;209.75;;;58.65;;
11425;SDS011;5769;47.998;7.788;2024-02-15T14:13:14;216.52;;;65.82;;
11425;SDS011;5769;47.998;7.788;2024-02-15T14:15:47;211.15;;;58.10;;
11425;SDS011;5769;47.998;7.788;2024-02-15T14:18:17;210.13;;;56.30;;
11425;SDS011;5769;47.998;7.788;2024-02-15T14:20:47;210.32;;;56.70;;
11425;SDS011;5769;47.998;7.788;2024-02-15T14:23:14;212.65;;;58.67;;
11425;SDS011;5769;47.998;7.788;2024-02-15T14:25:41;211.73;;;57.88;;
11425;SDS011;5769;47.998;7.788;2024-02-15T14:28:16;210.82;;;58.20;;
11425;SDS011;5769;47.998;7.788;2024-02-15T14:30:45;210.57;;;58.53;;
11425;SDS011;5769;47.998;7.788;2024-02-15T14:33:32;219.02;;;69.65;;
11425;SDS011;5769;47.998;7.788;2024-02-15T14:36:04;210.88;;;58.40;;
11425;SDS011;5769;47.998;7.788;2024-02-15T14:38:33;209.95;;;57.08;;
11425;SDS011;5769;47.998;7.788;2024-02-15T14:41:00;211.25;;;56.50;;
11425;SDS011;5769;47.998;7.788;2024-02-15T14:43:33;218.80;;;69.07;;